createdAt,value
2023-02-15T00:00:36.092Z,99.99
2023-02-15T00:01:36.050Z,99.99
2023-02-15T00:02:36.013Z,99.99
2023-02-15T00:03:35.993Z,99.99
2023-02-15T00:04:36.004Z,99.99
2023-02-15T00:05:35.902Z,99.99
2023-02-15T00:06:35.851Z,99.99
2023-02-15T00:07:35.821Z,99.99
2023-02-15T00:08:35.779Z,99.99
2023-02-15T00:09:35.739Z,99.99
2023-02-15T00:10:35.764Z,99.99
2023-02-15T00:11:35.672Z,99.99
2023-02-15T00:12:35.636Z,99.99
2023-02-15T00:13:35.589Z,99.99
2023-02-15T00:14:35.546Z,99.99
2023-02-15T00:15:35.508Z,99.99
2023-02-15T00:16:35.582Z,99.99
2023-02-15T00:17:35.427Z,99.99
2023-02-15T00:18:35.391Z,99.99
2023-02-15T00:19:35.356Z,99.99
2023-02-15T00:20:35.320Z,99.99
2023-02-15T00:21:35.275Z,99.99
2023-02-15T00:22:35.284Z,99.99
2023-02-15T00:23:35.200Z,99.99
2023-02-15T00:24:35.168Z,99.99
2023-02-15T00:25:35.123Z,99.99
2023-02-15T00:26:35.079Z,99.99
2023-02-15T00:27:35.044Z,99.99
2023-02-15T00:28:35.058Z,99.99
2023-02-15T00:29:34.961Z,99.99
2023-02-15T00:30:34.962Z,99.99
2023-02-15T00:31:35.005Z,99.99
2023-02-15T00:32:34.841Z,99.99
2023-02-15T00:33:34.811Z,99.99
2023-02-15T00:34:34.821Z,99.99
2023-02-15T00:35:34.722Z,99.99
2023-02-15T00:36:34.686Z,99.99
2023-02-15T00:37:34.644Z,99.99
2023-02-15T00:38:34.607Z,99.99
2023-02-15T00:39:34.571Z,99.99
2023-02-15T00:40:34.590Z,99.99
2023-02-15T00:41:34.483Z,99.99
2023-02-15T00:42:34.449Z,99.99
2023-02-15T00:43:34.424Z,99.99
2023-02-15T00:44:34.375Z,99.99
2023-02-15T00:45:34.342Z,99.99
2023-02-15T00:46:34.355Z,99.99
2023-02-15T00:47:34.255Z,99.99
2023-02-15T00:48:34.219Z,99.99
2023-02-15T00:49:34.184Z,99.99
2023-02-15T00:50:34.144Z,99.99
2023-02-15T00:51:34.125Z,99.99
2023-02-15T00:52:34.115Z,99.99
2023-02-15T00:53:34.024Z,99.99
2023-02-15T00:54:33.993Z,99.99
2023-02-15T00:55:33.950Z,99.99
2023-02-15T00:56:33.933Z,99.99
2023-02-15T00:57:33.873Z,99.99
2023-02-15T00:58:33.890Z,99.99
2023-02-15T00:59:33.793Z,99.99
2023-02-15T01:00:33.746Z,99.99
2023-02-15T01:01:33.789Z,99.99
2023-02-15T01:02:33.672Z,99.99
2023-02-15T01:03:33.640Z,99.99
2023-02-15T01:04:33.695Z,99.99
2023-02-15T01:05:33.559Z,99.99
2023-02-15T01:06:33.524Z,99.99
2023-02-15T01:07:33.484Z,99.99
2023-02-15T01:08:33.446Z,99.99
2023-02-15T01:09:33.396Z,99.99
2023-02-15T01:10:33.453Z,99.99
2023-02-15T01:11:33.326Z,99.99
2023-02-15T01:12:33.285Z,99.99
2023-02-15T01:13:33.241Z,99.99
2023-02-15T01:14:33.209Z,99.99
2023-02-15T01:15:33.205Z,99.99
2023-02-15T01:16:33.199Z,99.99
2023-02-15T01:17:33.152Z,99.99
2023-02-15T01:18:33.048Z,99.99
2023-02-15T01:19:33.013Z,99.99
2023-02-15T01:20:32.973Z,99.99
2023-02-15T01:21:32.932Z,99.99
2023-02-15T01:22:32.948Z,99.99
2023-02-15T01:23:32.856Z,99.99
2023-02-15T01:24:32.811Z,99.99
2023-02-15T01:25:32.776Z,99.99
2023-02-15T01:26:32.739Z,99.99
2023-02-15T01:27:32.699Z,99.99
2023-02-15T01:28:32.731Z,99.99
2023-02-15T01:29:32.621Z,99.99
2023-02-15T01:30:32.580Z,99.99
2023-02-15T01:31:32.676Z,99.99
2023-02-15T01:32:32.505Z,99.99
2023-02-15T01:33:32.463Z,99.99
2023-02-15T01:34:32.493Z,99.99
2023-02-15T01:35:32.396Z,99.99
2023-02-15T01:36:32.360Z,99.99
2023-02-15T01:37:32.321Z,99.99
2023-02-15T01:38:32.264Z,99.99
2023-02-15T01:39:32.234Z,99.99
2023-02-15T01:40:32.251Z,99.99
2023-02-15T01:41:32.152Z,99.99
2023-02-15T01:42:32.111Z,99.99
2023-02-15T01:43:32.078Z,99.99
2023-02-15T01:44:32.046Z,99.99
2023-02-15T01:45:31.992Z,99.99
2023-02-15T01:46:32.087Z,99.99
2023-02-15T01:47:31.992Z,99.99
2023-02-15T01:48:31.874Z,99.99
2023-02-15T01:49:31.838Z,99.99
2023-02-15T01:50:31.800Z,99.99
2023-02-15T01:51:31.761Z,99.99
2023-02-15T01:52:31.737Z,99.99
2023-02-15T01:53:31.760Z,99.99
2023-02-15T01:54:31.655Z,99.99
2023-02-15T01:55:31.600Z,99.99
2023-02-15T01:56:31.577Z,99.99
2023-02-15T01:57:31.536Z,99.99
2023-02-15T01:58:31.491Z,99.99
2023-02-15T01:59:31.505Z,99.99
2023-02-15T02:00:31.403Z,99.99
2023-02-15T02:01:31.393Z,99.99
2023-02-15T02:02:31.414Z,99.99
2023-02-15T02:03:31.290Z,99.99
2023-02-15T02:04:31.248Z,99.99
2023-02-15T02:05:31.264Z,99.99
2023-02-15T02:06:31.177Z,99.99
2023-02-15T02:07:31.138Z,99.99
2023-02-15T02:08:31.095Z,99.99
2023-02-15T02:09:31.049Z,99.99
2023-02-15T02:10:31.651Z,99.99
2023-02-15T02:11:31.030Z,99.99
2023-02-15T02:12:30.975Z,99.99
2023-02-15T02:13:30.902Z,99.99
2023-02-15T02:14:30.857Z,99.99
2023-02-15T02:15:30.815Z,99.99
2023-02-15T02:16:30.845Z,99.99
2023-02-15T02:17:30.748Z,99.99
2023-02-15T02:18:30.701Z,99.99
2023-02-15T02:19:30.664Z,99.99
2023-02-15T02:20:30.625Z,99.99
2023-02-15T02:21:30.594Z,99.99
2023-02-15T02:22:31.222Z,99.99
2023-02-15T02:23:30.542Z,99.99
2023-02-15T02:24:30.467Z,99.99
2023-02-15T02:25:30.435Z,99.99
2023-02-15T02:26:30.383Z,99.99
2023-02-15T02:27:30.348Z,99.99
2023-02-15T02:28:30.382Z,99.99
2023-02-15T02:29:30.268Z,99.99
2023-02-15T02:30:30.349Z,99.99
2023-02-15T02:31:30.300Z,99.99
2023-02-15T02:32:30.156Z,99.99
2023-02-15T02:33:30.118Z,99.99
2023-02-15T02:34:30.139Z,99.99
2023-02-15T02:35:30.095Z,99.99
2023-02-15T02:36:30.001Z,99.99
2023-02-15T02:37:29.958Z,99.99
2023-02-15T02:38:29.922Z,99.99
2023-02-15T02:39:29.881Z,99.99
2023-02-15T02:40:29.902Z,99.99
2023-02-15T02:41:29.829Z,99.99
2023-02-15T02:42:29.785Z,99.99
2023-02-15T02:43:29.732Z,99.99
2023-02-15T02:44:29.683Z,99.99
2023-02-15T02:45:29.645Z,99.99
2023-02-15T02:46:29.699Z,99.99
2023-02-15T02:47:29.597Z,99.99
2023-02-15T02:48:29.524Z,99.99
2023-02-15T02:49:29.492Z,99.99
2023-02-15T02:50:29.453Z,99.99
2023-02-15T02:51:29.405Z,99.99
2023-02-15T02:52:29.428Z,99.99
2023-02-15T02:53:29.328Z,99.99
2023-02-15T02:54:29.304Z,99.99
2023-02-15T02:55:29.250Z,99.99
2023-02-15T02:56:29.270Z,99.99
2023-02-15T02:57:29.176Z,99.99
2023-02-15T02:58:29.126Z,99.99
2023-02-15T02:59:29.111Z,99.99
2023-02-15T03:00:29.059Z,99.99
2023-02-15T03:01:29.114Z,99.99
2023-02-15T03:02:29.019Z,99.99
2023-02-15T03:03:28.944Z,99.99
2023-02-15T03:04:28.905Z,99.99
2023-02-15T03:05:28.854Z,99.99
2023-02-15T03:06:28.888Z,99.99
2023-02-15T03:07:28.789Z,99.99
2023-02-15T03:08:28.747Z,99.99
2023-02-15T03:09:28.698Z,99.99
2023-02-15T03:10:28.671Z,99.99
2023-02-15T03:11:28.692Z,99.99
2023-02-15T03:12:28.587Z,99.99
2023-02-15T03:13:28.555Z,99.99
2023-02-15T03:14:28.508Z,99.99
2023-02-15T03:15:28.470Z,99.99
2023-02-15T03:16:28.500Z,99.99
2023-02-15T03:17:28.446Z,99.99
2023-02-15T03:18:28.348Z,99.99
2023-02-15T03:19:28.331Z,99.99
2023-02-15T03:20:28.272Z,99.99
2023-02-15T03:21:28.228Z,99.99
2023-02-15T03:22:28.228Z,99.99
2023-02-15T03:23:28.241Z,99.99
2023-02-15T03:24:28.119Z,99.99
2023-02-15T03:25:28.074Z,99.99
2023-02-15T03:26:28.034Z,99.99
2023-02-15T03:27:28.008Z,99.99
2023-02-15T03:28:27.967Z,99.99
2023-02-15T03:29:27.992Z,99.99
2023-02-15T03:30:27.923Z,99.99
2023-02-15T03:31:27.954Z,99.99
2023-02-15T03:32:27.806Z,99.99
2023-02-15T03:33:27.768Z,99.99
2023-02-15T03:34:27.724Z,99.99
2023-02-15T03:35:27.746Z,99.99
2023-02-15T03:36:27.659Z,99.99
2023-02-15T03:37:27.617Z,99.99
2023-02-15T03:38:27.568Z,99.99
2023-02-15T03:39:27.533Z,99.99
2023-02-15T03:40:27.495Z,99.99
2023-02-15T03:41:27.502Z,99.99
2023-02-15T03:42:27.453Z,99.99
2023-02-15T03:43:27.382Z,99.99
2023-02-15T03:44:27.334Z,99.99
2023-02-15T03:45:27.302Z,99.99
2023-02-15T03:46:27.364Z,99.99
2023-02-15T03:47:27.240Z,99.99
2023-02-15T03:48:27.186Z,99.99
2023-02-15T03:49:27.143Z,99.99
2023-02-15T03:50:27.110Z,99.99
2023-02-15T03:51:27.063Z,99.99
2023-02-15T03:52:27.093Z,99.99
2023-02-15T03:53:26.981Z,99.99
2023-02-15T03:54:26.944Z,99.99
2023-02-15T03:55:26.905Z,99.99
2023-02-15T03:56:26.866Z,99.99
2023-02-15T03:57:26.836Z,99.99
2023-02-15T03:58:26.858Z,99.99
2023-02-15T03:59:26.742Z,99.99
2023-02-15T04:00:26.703Z,99.99
2023-02-15T04:01:26.736Z,99.99
2023-02-15T04:02:26.649Z,99.99
2023-02-15T04:03:26.593Z,99.99
2023-02-15T04:04:26.620Z,99.99
2023-02-15T04:05:26.515Z,99.99
2023-02-15T04:06:26.522Z,99.99
2023-02-15T04:07:26.506Z,99.99
2023-02-15T04:08:26.391Z,99.99
2023-02-15T04:09:26.363Z,99.99
2023-02-15T04:10:26.337Z,99.99
2023-02-15T04:11:26.283Z,99.99
2023-02-15T04:12:26.317Z,99.99
2023-02-15T04:13:26.211Z,99.99
2023-02-15T04:14:26.167Z,99.99
2023-02-15T04:15:26.132Z,99.99
2023-02-15T04:16:26.090Z,99.99
2023-02-15T04:17:26.042Z,99.99
2023-02-15T04:18:26.078Z,99.99
2023-02-15T04:19:25.983Z,99.99
2023-02-15T04:20:25.969Z,99.99
2023-02-15T04:21:25.893Z,99.99
2023-02-15T04:22:25.886Z,99.99
2023-02-15T04:23:25.818Z,99.99
2023-02-15T04:24:25.858Z,99.99
2023-02-15T04:25:25.742Z,99.99
2023-02-15T04:26:25.687Z,99.99
2023-02-15T04:27:25.654Z,99.99
2023-02-15T04:28:25.636Z,99.99
2023-02-15T04:29:25.574Z,99.99
2023-02-15T04:30:25.726Z,99.99
2023-02-15T04:31:25.548Z,99.99
2023-02-15T04:32:25.452Z,99.99
2023-02-15T04:33:25.438Z,99.99
2023-02-15T04:34:25.387Z,99.99
2023-02-15T04:35:25.336Z,99.99
2023-02-15T04:36:25.386Z,99.99
2023-02-15T04:37:25.267Z,99.99
2023-02-15T04:38:25.219Z,99.99
2023-02-15T04:39:25.185Z,99.99
2023-02-15T04:40:25.137Z,99.99
2023-02-15T04:41:25.115Z,99.99
2023-02-15T04:42:25.124Z,99.99
2023-02-15T04:43:25.031Z,99.99
2023-02-15T04:44:24.988Z,99.99
2023-02-15T04:45:24.949Z,99.99
2023-02-15T04:46:24.912Z,99.99
2023-02-15T04:47:24.867Z,99.99
2023-02-15T04:48:24.902Z,99.99
2023-02-15T04:49:24.794Z,99.99
2023-02-15T04:50:24.760Z,99.99
2023-02-15T04:51:24.721Z,99.99
2023-02-15T04:52:24.680Z,99.99
2023-02-15T04:53:24.637Z,99.99
2023-02-15T04:54:24.703Z,99.99
2023-02-15T04:55:24.557Z,99.99
2023-02-15T04:56:24.562Z,99.99
2023-02-15T04:57:24.478Z,99.99
2023-02-15T04:58:24.449Z,99.99
2023-02-15T04:59:24.403Z,99.99
2023-02-15T05:00:24.420Z,99.99
2023-02-15T05:01:24.390Z,99.99
2023-02-15T05:02:24.287Z,99.99
2023-02-15T05:03:24.251Z,99.99
2023-02-15T05:04:24.263Z,99.99
2023-02-15T05:05:24.170Z,99.99
2023-02-15T05:06:24.209Z,99.99
2023-02-15T05:07:24.092Z,99.99
2023-02-15T05:08:24.061Z,99.99
2023-02-15T05:09:24.018Z,99.99
2023-02-15T05:10:24.057Z,99.99
2023-02-15T05:11:23.948Z,99.99
2023-02-15T05:12:23.955Z,99.99
2023-02-15T05:13:23.863Z,99.99
2023-02-15T05:14:23.833Z,99.99
2023-02-15T05:15:23.809Z,99.99
2023-02-15T05:16:23.819Z,99.99
2023-02-15T05:17:23.763Z,99.99
2023-02-15T05:18:23.672Z,99.99
2023-02-15T05:19:23.641Z,99.99
2023-02-15T05:20:23.589Z,99.99
2023-02-15T05:21:23.554Z,99.99
2023-02-15T05:22:23.521Z,99.99
2023-02-15T05:23:23.524Z,99.99
2023-02-15T05:24:23.453Z,99.99
2023-02-15T05:25:23.400Z,99.99
2023-02-15T05:26:23.362Z,99.99
2023-02-15T05:27:23.326Z,99.99
2023-02-15T05:28:23.285Z,99.99
2023-02-15T05:29:23.310Z,99.99
2023-02-15T05:30:23.458Z,99.99
2023-02-15T05:31:23.525Z,99.99
2023-02-15T05:32:23.278Z,99.99
2023-02-15T05:33:23.143Z,99.99
2023-02-15T05:34:23.079Z,99.99
2023-02-15T05:35:23.259Z,99.99
2023-02-15T05:36:22.978Z,99.99
2023-02-15T05:37:22.964Z,99.99
2023-02-15T05:38:22.906Z,99.99
2023-02-15T05:39:22.912Z,99.99
2023-02-15T05:40:22.825Z,99.99
2023-02-15T05:41:22.840Z,99.99
2023-02-15T05:42:22.751Z,99.99
2023-02-15T05:43:22.707Z,99.99
2023-02-15T05:44:22.667Z,99.99
2023-02-15T05:45:22.634Z,99.99
2023-02-15T05:46:22.665Z,99.99
2023-02-15T05:47:22.620Z,99.99
2023-02-15T05:48:22.519Z,99.99
2023-02-15T05:49:22.481Z,99.99
2023-02-15T05:50:22.447Z,99.99
2023-02-15T05:51:22.426Z,99.99
2023-02-15T05:52:22.359Z,99.99
2023-02-15T05:53:22.393Z,99.99
2023-02-15T05:54:22.288Z,99.99
2023-02-15T05:55:22.246Z,99.99
2023-02-15T05:56:22.206Z,99.99
2023-02-15T05:57:22.174Z,99.99
2023-02-15T05:58:22.134Z,99.99
2023-02-15T05:59:22.164Z,99.99
2023-02-15T06:00:22.064Z,99.99
2023-02-15T06:01:22.019Z,99.99
2023-02-15T06:02:22.080Z,99.99
2023-02-15T06:03:21.976Z,99.99
2023-02-15T06:04:21.904Z,99.99
2023-02-15T06:05:21.934Z,99.99
2023-02-15T06:06:21.823Z,99.99
2023-02-15T06:07:21.790Z,99.99
2023-02-15T06:08:21.754Z,99.99
2023-02-15T06:09:21.730Z,99.99
2023-02-15T06:10:21.673Z,99.99
2023-02-15T06:11:21.685Z,99.99
2023-02-15T06:12:21.598Z,99.99
2023-02-15T06:13:21.561Z,99.99
2023-02-15T06:14:21.548Z,99.99
2023-02-15T06:15:21.509Z,99.99
2023-02-15T06:16:21.464Z,99.99
2023-02-15T06:17:21.453Z,99.99
2023-02-15T06:18:21.359Z,99.99
2023-02-15T06:19:21.331Z,99.99
2023-02-15T06:20:21.280Z,99.99
2023-02-15T06:21:21.250Z,99.99
2023-02-15T06:22:21.216Z,99.99
2023-02-15T06:23:21.223Z,99.99
2023-02-15T06:24:21.130Z,99.99
2023-02-15T06:25:21.097Z,99.99
2023-02-15T06:26:21.062Z,99.99
2023-02-15T06:27:21.017Z,99.99
2023-02-15T06:28:20.984Z,99.99
2023-02-15T06:29:21.020Z,99.99
2023-02-15T06:30:20.968Z,99.99
2023-02-15T06:31:20.960Z,99.99
2023-02-15T06:32:20.832Z,99.99
2023-02-15T06:33:20.789Z,99.99
2023-02-15T06:34:20.751Z,99.99
2023-02-15T06:35:20.776Z,99.99
2023-02-15T06:36:20.665Z,99.99
2023-02-15T06:37:20.627Z,99.99
2023-02-15T06:38:20.602Z,99.99
2023-02-15T06:39:20.580Z,99.99
2023-02-15T06:40:20.520Z,99.99
2023-02-15T06:41:20.532Z,99.99
2023-02-15T06:42:20.433Z,99.99
2023-02-15T06:43:20.410Z,99.99
2023-02-15T06:44:20.428Z,99.99
2023-02-15T06:45:20.316Z,99.99
2023-02-15T06:46:20.292Z,99.99
2023-02-15T06:47:20.314Z,99.99
2023-02-15T06:48:20.206Z,99.99
2023-02-15T06:49:20.168Z,99.99
2023-02-15T06:50:20.126Z,99.99
2023-02-15T06:51:20.087Z,99.99
2023-02-15T06:52:20.046Z,99.99
2023-02-15T06:53:20.059Z,99.99
2023-02-15T06:54:19.972Z,99.99
2023-02-15T06:55:19.928Z,99.99
2023-02-15T06:56:19.899Z,99.99
2023-02-15T06:57:19.865Z,99.99
2023-02-15T06:58:19.828Z,99.99
2023-02-15T06:59:19.835Z,99.99
2023-02-15T07:00:19.745Z,99.99
2023-02-15T07:01:19.743Z,99.99
2023-02-15T07:02:19.696Z,99.99
2023-02-15T07:03:19.628Z,99.99
2023-02-15T07:04:19.597Z,99.99
2023-02-15T07:05:19.606Z,99.99
2023-02-15T07:06:19.506Z,99.99
2023-02-15T07:07:19.472Z,99.99
2023-02-15T07:08:19.437Z,99.99
2023-02-15T07:09:19.391Z,99.99
2023-02-15T07:10:19.373Z,99.99
2023-02-15T07:11:19.503Z,99.99
2023-02-15T07:12:19.270Z,99.99
2023-02-15T07:13:19.239Z,99.99
2023-02-15T07:14:19.197Z,99.99
2023-02-15T07:15:19.163Z,99.99
2023-02-15T07:16:19.232Z,99.99
2023-02-15T07:17:35.164Z,99.99
2023-02-15T07:18:19.058Z,99.99
2023-02-15T07:19:19.012Z,99.99
2023-02-15T07:20:18.979Z,99.99
2023-02-15T07:21:18.946Z,99.99
2023-02-15T07:22:18.912Z,99.99
2023-02-15T07:23:18.944Z,99.99
2023-02-15T07:24:18.819Z,99.99
2023-02-15T07:25:18.779Z,99.99
2023-02-15T07:26:18.734Z,99.99
2023-02-15T07:27:18.701Z,99.99
2023-02-15T07:28:18.654Z,99.99
2023-02-15T07:29:18.681Z,99.99
2023-02-15T07:30:18.661Z,99.99
2023-02-15T07:31:18.593Z,99.99
2023-02-15T07:32:18.543Z,99.99
2023-02-15T07:33:18.483Z,99.99
2023-02-15T07:34:18.431Z,99.99
2023-02-15T07:35:18.457Z,99.99
2023-02-15T07:36:18.359Z,99.99
2023-02-15T07:37:18.311Z,99.99
2023-02-15T07:38:18.276Z,99.99
2023-02-15T07:39:18.241Z,99.99
2023-02-15T07:40:18.205Z,99.99
2023-02-15T07:41:18.234Z,99.99
2023-02-15T07:42:18.140Z,99.99
2023-02-15T07:43:18.095Z,99.99
2023-02-15T07:44:18.060Z,99.99
2023-02-15T07:45:18.018Z,99.99
2023-02-15T07:46:18.036Z,99.99
2023-02-15T07:47:18.006Z,99.99
2023-02-15T07:48:17.898Z,99.99
2023-02-15T07:49:17.874Z,99.99
2023-02-15T07:50:17.832Z,99.99
2023-02-15T07:51:17.787Z,99.99
2023-02-15T07:52:17.816Z,99.99
2023-02-15T07:53:17.723Z,99.99
2023-02-15T07:54:17.693Z,99.99
2023-02-15T07:55:17.658Z,99.51
2023-02-15T07:56:17.611Z,99.72
2023-02-15T07:57:17.565Z,99.93
2023-02-15T07:58:17.581Z,99.62
2023-02-15T07:59:17.498Z,99.88
2023-02-15T08:00:17.454Z,99.36
2023-02-15T08:01:17.418Z,98.99
2023-02-15T08:02:18.486Z,99.20
2023-02-15T08:03:17.485Z,99.10
2023-02-15T08:04:17.369Z,99.67
2023-02-15T08:05:17.282Z,99.51
2023-02-15T08:06:17.232Z,99.36
2023-02-15T08:07:17.193Z,99.46
2023-02-15T08:08:17.151Z,98.80
2023-02-15T08:09:17.113Z,97.91
2023-02-15T08:10:17.133Z,97.64
2023-02-15T08:11:17.049Z,98.20
2023-02-15T08:12:17.010Z,97.99
2023-02-15T08:13:16.972Z,98.72
2023-02-15T08:14:16.932Z,99.24
2023-02-15T08:15:16.900Z,98.93
2023-02-15T08:16:16.980Z,99.24
2023-02-15T08:17:16.819Z,99.41
2023-02-15T08:18:16.820Z,99.72
2023-02-15T08:19:16.741Z,99.51
2023-02-15T08:20:16.701Z,99.57
2023-02-15T08:21:16.678Z,99.57
2023-02-15T08:22:16.695Z,97.91
2023-02-15T08:23:16.600Z,97.96
2023-02-15T08:24:16.563Z,97.49
2023-02-15T08:25:16.528Z,98.07
2023-02-15T08:26:16.488Z,97.96
2023-02-15T08:27:16.456Z,97.61
2023-02-15T08:28:16.467Z,97.30
2023-02-15T08:29:16.374Z,97.09
2023-02-15T08:30:16.420Z,96.92
2023-02-15T08:31:16.367Z,96.36
2023-02-15T08:32:16.315Z,96.88
2023-02-15T08:33:16.238Z,97.30
2023-02-15T08:34:16.259Z,97.45
2023-02-15T08:35:16.158Z,97.88
2023-02-15T08:36:16.131Z,96.83
2023-02-15T08:37:16.086Z,96.11
2023-02-15T08:38:16.055Z,95.38
2023-02-15T08:39:16.018Z,94.96
2023-02-15T08:40:16.040Z,95.21
2023-02-15T08:41:15.934Z,95.38
2023-02-15T08:42:15.912Z,96.21
2023-02-15T08:43:15.863Z,95.48
2023-02-15T08:44:15.832Z,95.38
2023-02-15T08:45:22.921Z,95.17
2023-02-15T08:46:15.879Z,95.17
2023-02-15T08:47:15.733Z,95.28
2023-02-15T08:48:15.695Z,95.28
2023-02-15T08:49:15.650Z,95.90
2023-02-15T08:50:15.631Z,95.17
2023-02-15T08:51:15.619Z,95.17
2023-02-15T08:52:15.524Z,95.07
2023-02-15T08:53:16.868Z,95.54
2023-02-15T08:54:15.473Z,96.27
2023-02-15T08:55:15.414Z,95.81
2023-02-15T08:56:15.383Z,95.40
2023-02-15T08:57:15.794Z,94.94
2023-02-15T08:58:15.311Z,94.84
2023-02-15T08:59:15.266Z,94.21
2023-02-15T09:00:15.233Z,93.49
2023-02-15T09:01:15.223Z,93.44
2023-02-15T09:02:15.179Z,93.18
2023-02-15T09:03:15.199Z,93.70
2023-02-15T09:04:15.085Z,92.97
2023-02-15T09:05:15.057Z,93.54
2023-02-15T09:06:15.011Z,94.27
2023-02-15T09:07:14.986Z,93.02
2023-02-15T09:08:14.952Z,93.13
2023-02-15T09:09:14.957Z,93.07
2023-02-15T09:10:14.877Z,93.18
2023-02-15T09:11:15.732Z,93.28
2023-02-15T09:12:14.802Z,93.01
2023-02-15T09:13:14.772Z,93.53
2023-02-15T09:14:14.722Z,94.21
2023-02-15T09:15:14.741Z,94.42
2023-02-15T09:16:14.672Z,94.32
2023-02-15T09:17:16.095Z,94.27
2023-02-15T09:18:14.600Z,94.48
2023-02-15T09:19:14.557Z,93.75
2023-02-15T09:20:15.651Z,94.02
2023-02-15T09:21:14.789Z,93.46
2023-02-15T09:22:14.437Z,93.40
2023-02-15T09:23:25.471Z,93.04
2023-02-15T09:24:14.368Z,92.43
2023-02-15T09:25:14.359Z,92.53
2023-02-15T09:26:14.290Z,92.32
2023-02-15T09:27:14.323Z,92.01
2023-02-15T09:28:14.228Z,91.70
2023-02-15T09:29:14.248Z,92.32
2023-02-15T09:30:14.245Z,91.80
2023-02-15T09:31:14.154Z,91.55
2023-02-15T09:32:14.238Z,91.97
2023-02-15T09:33:14.096Z,91.66
2023-02-15T09:34:14.083Z,91.14
2023-02-15T09:35:14.005Z,91.51
2023-02-15T09:36:13.948Z,90.89
2023-02-15T09:37:13.922Z,91.51
2023-02-15T09:38:13.921Z,91.55
2023-02-15T09:39:13.839Z,91.20
2023-02-15T09:40:13.936Z,91.09
2023-02-15T09:41:13.785Z,90.89
2023-02-15T09:42:13.799Z,90.74
2023-02-15T09:43:13.709Z,90.64
2023-02-15T09:44:13.657Z,90.84
2023-02-15T09:45:13.610Z,90.16
2023-02-15T09:46:13.668Z,90.62
2023-02-15T09:47:13.549Z,91.14
2023-02-15T09:48:13.518Z,91.24
2023-02-15T09:49:13.489Z,91.70
2023-02-15T09:50:13.457Z,92.80
2023-02-15T09:51:13.406Z,93.21
2023-02-15T09:52:13.484Z,92.76
2023-02-15T09:53:13.329Z,93.06
2023-02-15T09:54:13.293Z,93.06
2023-02-15T09:55:13.258Z,92.55
2023-02-15T09:56:13.230Z,93.23
2023-02-15T09:57:13.270Z,92.61
2023-02-15T09:58:13.226Z,92.40
2023-02-15T09:59:13.122Z,91.32
2023-02-15T10:00:13.101Z,91.32
2023-02-15T10:01:13.047Z,91.22
2023-02-15T10:02:13.027Z,91.53
2023-02-15T10:03:13.003Z,92.57
2023-02-15T10:04:13.042Z,92.15
2023-02-15T10:05:12.916Z,91.42
2023-02-15T10:06:12.879Z,90.91
2023-02-15T10:07:12.851Z,89.98
2023-02-15T10:08:12.830Z,90.02
2023-02-15T10:09:12.799Z,91.36
2023-02-15T10:10:12.794Z,92.25
2023-02-15T10:11:12.795Z,91.99
2023-02-15T10:12:12.657Z,92.05
2023-02-15T10:13:12.632Z,91.84
2023-02-15T10:14:12.598Z,91.80
2023-02-15T10:15:12.583Z,90.77
2023-02-15T10:16:12.567Z,91.80
2023-02-15T10:17:12.491Z,91.38
2023-02-15T10:18:12.460Z,91.17
2023-02-15T10:19:12.411Z,91.28
2023-02-15T10:20:12.385Z,91.28
2023-02-15T10:21:12.347Z,91.80
2023-02-15T10:22:12.369Z,91.80
2023-02-15T10:23:12.281Z,90.97
2023-02-15T10:24:12.249Z,90.77
2023-02-15T10:25:12.207Z,91.42
2023-02-15T10:26:12.183Z,91.01
2023-02-15T10:27:12.136Z,91.42
2023-02-15T10:28:12.169Z,91.67
2023-02-15T10:29:12.070Z,92.15
2023-02-15T10:30:12.061Z,92.30
2023-02-15T10:31:12.137Z,92.71
2023-02-15T10:32:12.038Z,92.85
2023-02-15T10:33:11.922Z,93.27
2023-02-15T10:34:11.934Z,93.58
2023-02-15T10:35:11.850Z,93.99
2023-02-15T10:36:11.807Z,93.79
2023-02-15T10:37:11.775Z,94.35
2023-02-15T10:38:11.738Z,94.66
2023-02-15T10:39:11.700Z,94.45
2023-02-15T10:40:11.720Z,94.45
2023-02-15T10:41:11.642Z,94.66
2023-02-15T10:42:11.612Z,95.07
2023-02-15T10:43:11.567Z,95.07
2023-02-15T10:44:11.532Z,94.97
2023-02-15T10:45:11.498Z,95.59
2023-02-15T10:46:11.524Z,95.59
2023-02-15T10:47:12.750Z,95.59
2023-02-15T10:48:11.381Z,96.01
2023-02-15T10:49:11.394Z,96.06
2023-02-15T10:50:11.322Z,95.59
2023-02-15T10:51:11.345Z,95.54
2023-02-15T10:52:11.253Z,95.70
2023-02-15T10:53:11.210Z,95.65
2023-02-15T10:54:11.175Z,95.65
2023-02-15T10:55:11.130Z,95.44
2023-02-15T10:56:11.097Z,95.44
2023-02-15T10:57:11.124Z,95.75
2023-02-15T10:58:11.026Z,95.81
2023-02-15T10:59:10.993Z,95.65
2023-02-15T11:00:10.945Z,96.33
2023-02-15T11:01:10.939Z,95.61
2023-02-15T11:02:10.886Z,95.40
2023-02-15T11:03:10.916Z,96.23
2023-02-15T11:04:10.822Z,95.87
2023-02-15T11:05:10.848Z,95.98
2023-02-15T11:06:10.737Z,96.19
2023-02-15T11:07:10.695Z,95.67
2023-02-15T11:08:10.753Z,95.83
2023-02-15T11:09:10.750Z,95.87
2023-02-15T11:10:10.591Z,95.00
2023-02-15T11:11:10.586Z,95.00
2023-02-15T11:12:10.552Z,95.10
2023-02-15T11:13:10.478Z,95.73
2023-02-15T11:14:10.459Z,94.90
2023-02-15T11:15:10.475Z,95.83
2023-02-15T11:16:10.405Z,95.73
2023-02-15T11:17:10.347Z,95.42
2023-02-15T11:18:10.307Z,94.75
2023-02-15T11:19:10.266Z,94.75
2023-02-15T11:20:10.241Z,94.75
2023-02-15T11:21:10.276Z,95.64
2023-02-15T11:22:10.153Z,95.22
2023-02-15T11:23:10.133Z,94.50
2023-02-15T11:24:10.092Z,95.22
2023-02-15T11:25:10.068Z,94.35
2023-02-15T11:26:10.022Z,94.46
2023-02-15T11:27:10.073Z,94.46
2023-02-15T11:28:09.956Z,93.94
2023-02-15T11:29:09.909Z,93.94
2023-02-15T11:30:09.924Z,93.63
2023-02-15T11:31:09.974Z,93.73
2023-02-15T11:32:09.888Z,94.10
2023-02-15T11:33:09.875Z,93.69
2023-02-15T11:34:09.730Z,93.44
2023-02-15T11:35:09.695Z,93.90
2023-02-15T11:36:09.659Z,93.65
2023-02-15T11:37:09.630Z,93.59
2023-02-15T11:38:09.592Z,93.24
2023-02-15T11:39:09.732Z,93.03
2023-02-15T11:40:09.512Z,92.82
2023-02-15T11:41:09.474Z,92.82
2023-02-15T11:42:09.437Z,92.88
2023-02-15T11:43:09.409Z,92.47
2023-02-15T11:44:09.391Z,93.19
2023-02-15T11:45:09.383Z,91.81
2023-02-15T11:46:11.345Z,91.91
2023-02-15T11:47:09.264Z,91.81
2023-02-15T11:48:09.237Z,91.50
2023-02-15T11:49:09.240Z,91.81
2023-02-15T11:50:09.165Z,91.56
2023-02-15T11:51:09.251Z,91.46
2023-02-15T11:52:09.123Z,91.15
2023-02-15T11:53:09.043Z,91.15
2023-02-15T11:54:09.019Z,90.64
2023-02-15T11:55:08.993Z,91.05
2023-02-15T11:56:08.939Z,90.73
2023-02-15T11:57:08.958Z,90.73
2023-02-15T11:58:08.875Z,90.28
2023-02-15T11:59:08.836Z,89.97
2023-02-15T12:00:08.796Z,90.90
2023-02-15T12:01:08.766Z,90.08
2023-02-15T12:02:08.731Z,90.75
2023-02-15T12:03:08.764Z,90.45
2023-02-15T12:04:08.711Z,90.55
2023-02-15T12:05:08.620Z,89.01
2023-02-15T12:06:08.599Z,89.42
2023-02-15T12:07:08.555Z,89.62
2023-02-15T12:08:08.513Z,88.80
2023-02-15T12:09:08.561Z,88.80
2023-02-15T12:10:08.449Z,89.48
2023-02-15T12:11:08.424Z,89.28
2023-02-15T12:12:08.383Z,89.28
2023-02-15T12:13:08.345Z,88.86
2023-02-15T12:14:08.318Z,88.56
2023-02-15T12:15:08.340Z,88.24
2023-02-15T12:16:11.082Z,88.56
2023-02-15T12:17:08.203Z,88.24
2023-02-15T12:18:08.185Z,88.24
2023-02-15T12:19:08.194Z,87.73
2023-02-15T12:20:08.107Z,88.20
2023-02-15T12:21:08.147Z,88.10
2023-02-15T12:22:10.338Z,88.41
2023-02-15T12:23:08.027Z,87.55
2023-02-15T12:24:07.953Z,87.75
2023-02-15T12:25:07.934Z,87.96
2023-02-15T12:26:07.900Z,87.34
2023-02-15T12:27:07.927Z,87.40
2023-02-15T12:28:07.837Z,87.20
2023-02-15T12:29:07.788Z,86.79
2023-02-15T12:30:07.803Z,86.17
2023-02-15T12:31:07.742Z,85.82
2023-02-15T12:32:07.817Z,86.13
2023-02-15T12:33:07.718Z,84.80
2023-02-15T12:34:07.619Z,84.76
2023-02-15T12:35:07.633Z,85.17
2023-02-15T12:36:07.544Z,84.61
2023-02-15T12:37:07.520Z,84.92
2023-02-15T12:38:07.478Z,83.28
2023-02-15T12:39:07.501Z,82.77
2023-02-15T12:40:07.432Z,83.18
2023-02-15T12:41:07.377Z,82.87
2023-02-15T12:42:07.340Z,82.77
2023-02-15T12:43:08.924Z,82.97
2023-02-15T12:44:07.433Z,83.04
2023-02-15T12:45:07.303Z,82.79
2023-02-15T12:46:07.205Z,82.79
2023-02-15T12:47:07.250Z,81.77
2023-02-15T12:48:07.180Z,81.26
2023-02-15T12:49:07.099Z,80.95
2023-02-15T12:50:12.121Z,80.64
2023-02-15T12:51:07.769Z,79.89
2023-02-15T12:52:07.006Z,80.40